sensor_id;sensor_type;location;lat;lon;timestamp;pressure;altitude;pressure_sealevel;temperature;humidity
63731;BME280;49747;51.334;6.830;2023-02-23T00:01:39;100708.69;;;14.09;82.49
63731;BME280;49747;51.334;6.830;2023-02-23T00:04:06;100706.97;;;14.08;82.58
63731;BME280;49747;51.334;6.830;2023-02-23T00:06:33;100712.19;;;14.10;82.66
63731;BME280;49747;51.334;6.830;2023-02-23T00:09:02;100711.34;;;14.09;82.70
63731;BME280;49747;51.334;6.830;2023-02-23T00:11:38;100707.69;;;14.10;82.56
63731;BME280;49747;51.334;6.830;2023-02-23T00:14:05;100705.88;;;14.11;82.38
63731;BME280;49747;51.334;6.830;2023-02-23T00:16:33;100708.53;;;14.11;82.68
63731;BME280;49747;51.334;6.830;2023-02-23T00:19:00;100700.38;;;14.12;82.36
63731;BME280;49747;51.334;6.830;2023-02-23T00:21:29;100707.44;;;14.13;82.55
63731;BME280;49747;51.334;6.830;2023-02-23T00:24:03;100693.25;;;14.13;82.37
63731;BME280;49747;51.334;6.830;2023-02-23T00:26:32;100702.94;;;14.14;82.27
63731;BME280;49747;51.334;6.830;2023-02-23T00:29:06;100692.50;;;14.11;82.56
63731;BME280;49747;51.334;6.830;2023-02-23T00:31:33;100696.75;;;14.13;82.49
63731;BME280;49747;51.334;6.830;2023-02-23T00:34:02;100702.94;;;14.14;82.46
63731;BME280;49747;51.334;6.830;2023-02-23T00:36:34;100697.59;;;14.14;82.54
63731;BME280;49747;51.334;6.830;2023-02-23T00:39:04;100691.41;;;14.13;82.30
63731;BME280;49747;51.334;6.830;2023-02-23T00:41:37;100701.09;;;14.14;82.20
63731;BME280;49747;51.334;6.830;2023-02-23T00:44:05;100692.25;;;14.14;82.37
63731;BME280;49747;51.334;6.830;2023-02-23T00:46:32;100692.25;;;14.14;82.36
63731;BME280;49747;51.334;6.830;2023-02-23T00:48:58;100690.41;;;14.14;82.37
63731;BME280;49747;51.334;6.830;2023-02-23T00:51:26;100692.94;;;14.16;82.27
63731;BME280;49747;51.334;6.830;2023-02-23T00:53:58;100692.94;;;14.16;82.32
63731;BME280;49747;51.334;6.830;2023-02-23T00:56:26;100693.09;;;14.14;82.38
63731;BME280;49747;51.334;6.830;2023-02-23T00:58:53;100691.25;;;14.15;82.31
63731;BME280;49747;51.334;6.830;2023-02-23T01:01:20;100693.94;;;14.15;82.47
63731;BME280;49747;51.334;6.830;2023-02-23T01:03:49;100696.59;;;14.15;82.38
63731;BME280;49747;51.334;6.830;2023-02-23T01:06:16;100692.94;;;14.16;82.23
63731;BME280;49747;51.334;6.830;2023-02-23T01:08:45;100700.13;;;14.15;82.33
63731;BME280;49747;51.334;6.830;2023-02-23T01:11:18;100692.25;;;14.14;82.51
63731;BME280;49747;51.334;6.830;2023-02-23T01:13:48;100687.75;;;14.14;82.53
63731;BME280;49747;51.334;6.830;2023-02-23T01:16:16;100690.56;;;14.13;82.41
63731;BME280;49747;51.334;6.830;2023-02-23T01:18:46;100684.22;;;14.14;82.52
63731;BME280;49747;51.334;6.830;2023-02-23T01:21:20;100679.72;;;14.14;82.76
63731;BME280;49747;51.334;6.830;2023-02-23T01:23:47;100686.06;;;14.13;82.47
63731;BME280;49747;51.334;6.830;2023-02-23T01:26:19;100681.69;;;14.12;82.49
63731;BME280;49747;51.334;6.830;2023-02-23T01:28:57;100683.41;;;14.13;82.42
63731;BME280;49747;51.334;6.830;2023-02-23T01:31:24;100689.16;;;14.09;82.51
63731;BME280;49747;51.334;6.830;2023-02-23T01:33:58;100691.66;;;14.10;82.64
63731;BME280;49747;51.334;6.830;2023-02-23T01:36:32;100689.84;;;14.11;82.48
63731;BME280;49747;51.334;6.830;2023-02-23T01:39:00;100690.69;;;14.11;82.80
63731;BME280;49747;51.334;6.830;2023-02-23T01:41:28;100678.56;;;14.07;82.43
63731;BME280;49747;51.334;6.830;2023-02-23T01:46:26;100691.53;;;14.12;82.69
63731;BME280;49747;51.334;6.830;2023-02-23T01:48:54;100697.00;;;14.10;82.31
63731;BME280;49747;51.334;6.830;2023-02-23T01:51:25;100690.69;;;14.11;82.56
63731;BME280;49747;51.334;6.830;2023-02-23T01:54:01;100682.66;;;14.11;82.55
63731;BME280;49747;51.334;6.830;2023-02-23T01:56:39;100682.66;;;14.11;82.62
63731;BME280;49747;51.334;6.830;2023-02-23T01:59:09;100684.34;;;14.12;82.61
63731;BME280;49747;51.334;6.830;2023-02-23T02:01:38;100688.00;;;14.11;82.74
63731;BME280;49747;51.334;6.830;2023-02-23T02:04:09;100682.66;;;14.11;82.46
63731;BME280;49747;51.334;6.830;2023-02-23T02:06:42;100688.72;;;14.13;82.72
63731;BME280;49747;51.334;6.830;2023-02-23T02:09:14;100688.72;;;14.13;82.66
63731;BME280;49747;51.334;6.830;2023-02-23T02:11:45;100683.41;;;14.13;82.73
63731;BME280;49747;51.334;6.830;2023-02-23T02:14:26;100681.69;;;14.12;82.58
63731;BME280;49747;51.334;6.830;2023-02-23T02:28:27;100681.69;;;14.12;82.73
63731;BME280;49747;51.334;6.830;2023-02-23T02:31:24;100660.69;;;13.98;82.73
63731;BME280;49747;51.334;6.830;2023-02-23T02:34:22;100685.91;;;14.15;82.76
63731;BME280;49747;51.334;6.830;2023-02-23T02:45:29;100682.41;;;14.14;82.68
63731;BME280;49747;51.334;6.830;2023-02-23T02:48:08;100684.09;;;14.15;82.75
63731;BME280;49747;51.334;6.830;2023-02-23T02:50:56;100675.22;;;14.15;82.62
63731;BME280;49747;51.334;6.830;2023-02-23T02:53:35;100673.41;;;14.15;82.51
63731;BME280;49747;51.334;6.830;2023-02-23T02:56:07;100676.06;;;14.15;82.64
63731;BME280;49747;51.334;6.830;2023-02-23T02:58:36;100671.72;;;14.14;82.36
63731;BME280;49747;51.334;6.830;2023-02-23T03:01:11;100669.88;;;14.15;82.40
63731;BME280;49747;51.334;6.830;2023-02-23T03:03:59;100672.56;;;14.15;82.67
63731;BME280;49747;51.334;6.830;2023-02-23T03:06:56;100668.22;;;14.14;82.48
63731;BME280;49747;51.334;6.830;2023-02-23T03:10:00;100677.91;;;14.15;82.46
63731;BME280;49747;51.334;6.830;2023-02-23T03:12:57;100676.06;;;14.15;82.37
63731;BME280;49747;51.334;6.830;2023-02-23T03:27:53;100678.75;;;14.15;82.54
63731;BME280;49747;51.334;6.830;2023-02-23T03:30:57;100680.47;;;14.16;82.27
63731;BME280;49747;51.334;6.830;2023-02-23T03:34:10;100684.94;;;14.16;82.39
63731;BME280;49747;51.334;6.830;2023-02-23T03:37:05;100683.13;;;14.16;82.26
63731;BME280;49747;51.334;6.830;2023-02-23T03:40:03;100684.94;;;14.16;82.30
63731;BME280;49747;51.334;6.830;2023-02-23T03:42:50;100681.41;;;14.15;82.19
63731;BME280;49747;51.334;6.830;2023-02-23T03:45:38;100684.94;;;14.16;82.18
63731;BME280;49747;51.334;6.830;2023-02-23T03:48:25;100685.06;;;14.14;82.22
63731;BME280;49747;51.334;6.830;2023-02-23T03:51:12;100685.91;;;14.15;81.97
63731;BME280;49747;51.334;6.830;2023-02-23T03:56:52;100686.75;;;14.15;82.08
63731;BME280;49747;51.334;6.830;2023-02-23T03:59:46;100693.09;;;14.14;82.10
63731;BME280;49747;51.334;6.830;2023-02-23T04:02:40;100691.25;;;14.15;82.13
63731;BME280;49747;51.334;6.830;2023-02-23T04:05:28;100690.28;;;14.16;82.14
63731;BME280;49747;51.334;6.830;2023-02-23T04:08:17;100692.09;;;14.15;82.19
63731;BME280;49747;51.334;6.830;2023-02-23T04:11:26;100693.94;;;14.15;82.16
63731;BME280;49747;51.334;6.830;2023-02-23T04:14:18;100694.78;;;14.15;82.11
63731;BME280;49747;51.334;6.830;2023-02-23T04:16:49;100693.09;;;14.14;82.01
63731;BME280;49747;51.334;6.830;2023-02-23T04:19:15;100697.44;;;14.15;82.06
63731;BME280;49747;51.334;6.830;2023-02-23T04:21:42;100699.41;;;14.13;82.02
63731;BME280;49747;51.334;6.830;2023-02-23T04:24:09;100708.13;;;14.15;81.94
63731;BME280;49747;51.334;6.830;2023-02-23T04:26:35;100701.09;;;14.14;82.25
63731;BME280;49747;51.334;6.830;2023-02-23T04:29:02;100699.28;;;14.15;81.89
63731;BME280;49747;51.334;6.830;2023-02-23T04:31:29;100701.09;;;14.14;81.96
63731;BME280;49747;51.334;6.830;2023-02-23T04:33:55;100704.75;;;14.13;81.84
63731;BME280;49747;51.334;6.830;2023-02-23T04:36:22;100702.94;;;14.14;82.18
63731;BME280;49747;51.334;6.830;2023-02-23T04:38:50;100705.47;;;14.15;81.91
63731;BME280;49747;51.334;6.830;2023-02-23T04:41:16;100699.41;;;14.13;82.28
63731;BME280;49747;51.334;6.830;2023-02-23T04:43:43;100703.91;;;14.13;81.74
63731;BME280;49747;51.334;6.830;2023-02-23T04:46:10;100708.28;;;14.14;81.67
63731;BME280;49747;51.334;6.830;2023-02-23T04:48:36;100707.44;;;14.13;81.53
63731;BME280;49747;51.334;6.830;2023-02-23T04:51:03;100707.44;;;14.13;81.75
63731;BME280;49747;51.334;6.830;2023-02-23T04:53:30;100710.09;;;14.13;81.51
63731;BME280;49747;51.334;6.830;2023-02-23T04:55:56;100706.59;;;14.13;81.62
63731;BME280;49747;51.334;6.830;2023-02-23T04:58:23;100710.09;;;14.13;81.66
63731;BME280;49747;51.334;6.830;2023-02-23T05:00:49;100706.59;;;14.13;81.37
63731;BME280;49747;51.334;6.830;2023-02-23T05:03:16;100707.56;;;14.12;81.73
63731;BME280;49747;51.334;6.830;2023-02-23T05:05:43;100686.66;;;13.96;81.29
63731;BME280;49747;51.334;6.830;2023-02-23T05:08:10;100711.94;;;14.13;81.26
63731;BME280;49747;51.334;6.830;2023-02-23T05:10:36;100711.78;;;14.14;81.58
63731;BME280;49747;51.334;6.830;2023-02-23T05:13:05;100713.63;;;14.14;80.91
63731;BME280;49747;51.334;6.830;2023-02-23T05:15:32;100718.97;;;14.14;81.16
63731;BME280;49747;51.334;6.830;2023-02-23T05:17:58;100715.31;;;14.15;81.46
63731;BME280;49747;51.334;6.830;2023-02-23T05:20:25;100719.66;;;14.16;81.39
63731;BME280;49747;51.334;6.830;2023-02-23T05:22:52;100713.47;;;14.15;81.19
63731;BME280;49747;51.334;6.830;2023-02-23T05:25:18;100716.03;;;14.17;81.26
63731;BME280;49747;51.334;6.830;2023-02-23T05:27:45;100721.38;;;14.17;81.34
63731;BME280;49747;51.334;6.830;2023-02-23T05:30:11;100712.53;;;14.16;81.08
63731;BME280;49747;51.334;6.830;2023-02-23T05:32:38;100722.22;;;14.17;81.21
63731;BME280;49747;51.334;6.830;2023-02-23T05:35:06;100717.72;;;14.18;81.13
63731;BME280;49747;51.334;6.830;2023-02-23T05:37:34;100721.22;;;14.18;81.50
63731;BME280;49747;51.334;6.830;2023-02-23T05:40:00;100724.75;;;14.19;81.00
63731;BME280;49747;51.334;6.830;2023-02-23T05:42:27;100721.97;;;14.20;80.98
63731;BME280;49747;51.334;6.830;2023-02-23T05:44:54;100717.56;;;14.19;81.19
63731;BME280;49747;51.334;6.830;2023-02-23T05:47:20;100722.91;;;14.19;81.11
63731;BME280;49747;51.334;6.830;2023-02-23T05:49:48;100721.09;;;14.20;81.18
63731;BME280;49747;51.334;6.830;2023-02-23T05:52:16;100730.81;;;14.21;81.02
63731;BME280;49747;51.334;6.830;2023-02-23T05:54:43;100730.66;;;14.22;81.01
63731;BME280;49747;51.334;6.830;2023-02-23T05:57:11;100722.91;;;14.19;81.05
63731;BME280;49747;51.334;6.830;2023-02-23T05:59:38;100721.81;;;14.22;80.92
63731;BME280;49747;51.334;6.830;2023-02-23T06:02:05;100732.50;;;14.22;81.00
63731;BME280;49747;51.334;6.830;2023-02-23T06:04:32;100724.16;;;14.15;81.08
63731;BME280;49747;51.334;6.830;2023-02-23T06:06:59;100737.00;;;14.21;81.12
63731;BME280;49747;51.334;6.830;2023-02-23T06:09:25;100720.66;;;14.15;80.86
63731;BME280;49747;51.334;6.830;2023-02-23T06:11:52;100734.31;;;14.21;80.97
63731;BME280;49747;51.334;6.830;2023-02-23T06:14:18;100735.16;;;14.22;80.72
63731;BME280;49747;51.334;6.830;2023-02-23T06:16:45;100737.00;;;14.21;80.18
63731;BME280;49747;51.334;6.830;2023-02-23T06:19:14;100744.03;;;14.22;80.68
63731;BME280;49747;51.334;6.830;2023-02-23T06:21:40;100743.34;;;14.20;80.65
63731;BME280;49747;51.334;6.830;2023-02-23T06:24:07;100744.88;;;14.23;80.72
63731;BME280;49747;51.334;6.830;2023-02-23T06:26:33;100750.22;;;14.23;80.67
63731;BME280;49747;51.334;6.830;2023-02-23T06:29:00;100748.28;;;14.25;80.53
63731;BME280;49747;51.334;6.830;2023-02-23T06:31:27;100745.72;;;14.23;80.59
63731;BME280;49747;51.334;6.830;2023-02-23T06:33:54;100755.44;;;14.24;80.52
63731;BME280;49747;51.334;6.830;2023-02-23T06:36:21;100759.91;;;14.24;80.49
63731;BME280;49747;51.334;6.830;2023-02-23T06:38:48;100752.78;;;14.24;80.58
63731;BME280;49747;51.334;6.830;2023-02-23T06:41:14;100763.47;;;14.24;80.68
63731;BME280;49747;51.334;6.830;2023-02-23T06:43:41;100747.28;;;13.53;83.06
63731;BME280;49747;51.334;6.830;2023-02-23T06:46:08;100766.91;;;13.20;84.78
63731;BME280;49747;51.334;6.830;2023-02-23T06:48:34;100770.88;;;12.94;86.38
63731;BME280;49747;51.334;6.830;2023-02-23T06:51:01;100765.94;;;12.67;88.10
63731;BME280;49747;51.334;6.830;2023-02-23T06:53:28;100767.06;;;12.53;89.07
63731;BME280;49747;51.334;6.830;2023-02-23T06:55:56;100772.50;;;12.40;90.03
63731;BME280;49747;51.334;6.830;2023-02-23T06:58:23;100780.13;;;12.22;91.24
63731;BME280;49747;51.334;6.830;2023-02-23T07:00:50;100785.22;;;12.14;91.90
63731;BME280;49747;51.334;6.830;2023-02-23T07:03:17;100777.69;;;12.08;92.33
63731;BME280;49747;51.334;6.830;2023-02-23T07:05:44;100780.00;;;12.01;92.78
63731;BME280;49747;51.334;6.830;2023-02-23T07:08:11;100770.31;;;11.89;93.52
63731;BME280;49747;51.334;6.830;2023-02-23T07:10:38;100781.66;;;11.91;94.00
63731;BME280;49747;51.334;6.830;2023-02-23T07:13:04;100783.19;;;11.82;94.69
63731;BME280;49747;51.334;6.830;2023-02-23T07:15:31;100785.00;;;11.82;94.79
63731;BME280;49747;51.334;6.830;2023-02-23T07:17:58;100786.06;;;11.79;94.91
63731;BME280;49747;51.334;6.830;2023-02-23T07:20:24;100799.50;;;11.78;94.91
63731;BME280;49747;51.334;6.830;2023-02-23T07:22:51;100791.13;;;11.71;94.90
63731;BME280;49747;51.334;6.830;2023-02-23T07:25:17;100803.38;;;11.74;95.20
63731;BME280;49747;51.334;6.830;2023-02-23T07:27:44;100802.63;;;11.72;95.72
63731;BME280;49747;51.334;6.830;2023-02-23T07:30:12;100806.97;;;11.73;96.08
63731;BME280;49747;51.334;6.830;2023-02-23T07:32:39;100805.41;;;11.70;96.03
63731;BME280;49747;51.334;6.830;2023-02-23T07:35:06;100807.22;;;11.70;95.49
63731;BME280;49747;51.334;6.830;2023-02-23T07:37:33;100810.47;;;11.62;95.56
63731;BME280;49747;51.334;6.830;2023-02-23T07:39:59;100816.00;;;11.59;96.38
63731;BME280;49747;51.334;6.830;2023-02-23T07:42:27;100822.53;;;11.55;96.78
63731;BME280;49747;51.334;6.830;2023-02-23T07:44:53;100817.97;;;11.57;95.70
63731;BME280;49747;51.334;6.830;2023-02-23T07:47:21;100822.38;;;11.45;96.32
63731;BME280;49747;51.334;6.830;2023-02-23T07:49:59;100814.97;;;11.38;96.43
63731;BME280;49747;51.334;6.830;2023-02-23T07:52:28;100829.59;;;11.43;96.77
63731;BME280;49747;51.334;6.830;2023-02-23T07:54:54;100817.78;;;11.23;97.84
63731;BME280;49747;51.334;6.830;2023-02-23T07:57:22;100837.53;;;11.32;97.59
63731;BME280;49747;51.334;6.830;2023-02-23T07:59:50;100833.81;;;11.34;97.73
63731;BME280;49747;51.334;6.830;2023-02-23T08:02:17;100832.84;;;11.35;96.86
63731;BME280;49747;51.334;6.830;2023-02-23T08:04:43;100807.19;;;11.10;97.73
63731;BME280;49747;51.334;6.830;2023-02-23T08:07:10;100840.31;;;11.30;98.05
63731;BME280;49747;51.334;6.830;2023-02-23T08:09:38;100838.06;;;11.37;97.47
63731;BME280;49747;51.334;6.830;2023-02-23T08:12:06;100848.91;;;11.34;98.11
63731;BME280;49747;51.334;6.830;2023-02-23T08:14:35;100845.06;;;11.38;97.93
63731;BME280;49747;51.334;6.830;2023-02-23T08:17:02;100848.69;;;11.37;98.08
63731;BME280;49747;51.334;6.830;2023-02-23T08:19:29;100853.59;;;11.30;98.31
63731;BME280;49747;51.334;6.830;2023-02-23T08:21:55;100851.97;;;11.41;97.59
63731;BME280;49747;51.334;6.830;2023-02-23T08:24:24;100848.78;;;11.35;96.61
63731;BME280;49747;51.334;6.830;2023-02-23T08:26:51;100852.63;;;11.31;97.17
63731;BME280;49747;51.334;6.830;2023-02-23T08:29:18;100855.25;;;11.44;97.40
63731;BME280;49747;51.334;6.830;2023-02-23T08:31:46;100847.50;;;11.41;97.02
63731;BME280;49747;51.334;6.830;2023-02-23T08:34:13;100865.53;;;11.49;97.27
63731;BME280;49747;51.334;6.830;2023-02-23T08:36:41;100863.63;;;11.51;96.66
63731;BME280;49747;51.334;6.830;2023-02-23T08:39:12;100865.78;;;11.46;97.02
63731;BME280;49747;51.334;6.830;2023-02-23T08:41:39;100865.78;;;11.46;96.69
63731;BME280;49747;51.334;6.830;2023-02-23T08:44:07;100872.94;;;11.45;96.58
63731;BME280;49747;51.334;6.830;2023-02-23T08:46:36;100872.38;;;11.40;96.63
63731;BME280;49747;51.334;6.830;2023-02-23T08:49:03;100877.00;;;11.38;95.85
63731;BME280;49747;51.334;6.830;2023-02-23T08:51:32;100877.72;;;11.40;96.02
63731;BME280;49747;51.334;6.830;2023-02-23T08:54:00;100870.00;;;11.24;95.44
63731;BME280;49747;51.334;6.830;2023-02-23T08:56:27;100873.19;;;11.29;96.03
63731;BME280;49747;51.334;6.830;2023-02-23T08:58:54;100883.59;;;11.32;96.16
63731;BME280;49747;51.334;6.830;2023-02-23T09:01:22;100879.66;;;11.38;96.67
63731;BME280;49747;51.334;6.830;2023-02-23T09:03:49;100885.59;;;11.42;95.72
63731;BME280;49747;51.334;6.830;2023-02-23T09:06:19;100874.13;;;11.41;96.45
63731;BME280;49747;51.334;6.830;2023-02-23T09:08:47;100869.44;;;11.32;96.17
63731;BME280;49747;51.334;6.830;2023-02-23T09:11:16;100882.94;;;11.42;95.53
63731;BME280;49747;51.334;6.830;2023-02-23T09:13:43;100892.59;;;11.43;95.93
63731;BME280;49747;51.334;6.830;2023-02-23T09:16:11;100881.75;;;11.46;95.74
63731;BME280;49747;51.334;6.830;2023-02-23T09:18:39;100896.53;;;11.50;95.37
63731;BME280;49747;51.334;6.830;2023-02-23T09:21:07;100888.53;;;11.50;95.60
63731;BME280;49747;51.334;6.830;2023-02-23T09:23:36;100893.97;;;11.48;96.70
63731;BME280;49747;51.334;6.830;2023-02-23T09:26:04;100892.09;;;11.38;96.35
63731;BME280;49747;51.334;6.830;2023-02-23T09:28:31;100900.38;;;11.46;96.96
63731;BME280;49747;51.334;6.830;2023-02-23T09:31:10;100900.13;;;11.49;96.56
63731;BME280;49747;51.334;6.830;2023-02-23T09:33:38;100896.88;;;11.32;96.47
63731;BME280;49747;51.334;6.830;2023-02-23T09:36:08;100896.88;;;11.32;96.83
63731;BME280;49747;51.334;6.830;2023-02-23T09:38:34;100899.53;;;11.32;96.90
63731;BME280;49747;51.334;6.830;2023-02-23T09:41:01;100901.44;;;11.43;97.07
63731;BME280;49747;51.334;6.830;2023-02-23T09:46:10;100901.84;;;11.50;97.08
63731;BME280;49747;51.334;6.830;2023-02-23T09:48:41;100904.38;;;11.51;97.40
63731;BME280;49747;51.334;6.830;2023-02-23T09:51:15;100906.91;;;11.53;97.58
63731;BME280;49747;51.334;6.830;2023-02-23T09:54:03;100914.06;;;11.52;97.11
63731;BME280;49747;51.334;6.830;2023-02-23T09:56:39;100917.81;;;11.50;95.75
63731;BME280;49747;51.334;6.830;2023-02-23T09:59:17;100928.38;;;11.39;95.96
63731;BME280;49747;51.334;6.830;2023-02-23T10:01:59;100927.69;;;11.48;96.72
63731;BME280;49747;51.334;6.830;2023-02-23T10:04:37;100904.88;;;11.32;95.63
63731;BME280;49747;51.334;6.830;2023-02-23T10:07:20;100928.44;;;11.50;96.53
63731;BME280;49747;51.334;6.830;2023-02-23T10:10:09;100933.66;;;11.51;96.48
63731;BME280;49747;51.334;6.830;2023-02-23T10:15:26;100935.25;;;11.54;96.41
63731;BME280;49747;51.334;6.830;2023-02-23T10:20:41;100940.78;;;11.51;95.12
63731;BME280;49747;51.334;6.830;2023-02-23T10:23:22;100910.81;;;11.36;95.59
63731;BME280;49747;51.334;6.830;2023-02-23T10:25:53;100953.44;;;11.47;95.93
63731;BME280;49747;51.334;6.830;2023-02-23T10:28:25;100945.50;;;11.34;96.20
63731;BME280;49747;51.334;6.830;2023-02-23T10:30:54;100960.78;;;11.07;96.35
63731;BME280;49747;51.334;6.830;2023-02-23T10:33:28;100955.22;;;11.23;95.64
63731;BME280;49747;51.334;6.830;2023-02-23T10:36:04;100930.91;;;11.03;96.81
63731;BME280;49747;51.334;6.830;2023-02-23T10:38:39;100957.16;;;11.08;96.48
63731;BME280;49747;51.334;6.830;2023-02-23T10:41:07;100951.19;;;11.17;96.06
63731;BME280;49747;51.334;6.830;2023-02-23T10:43:40;100962.66;;;11.30;96.67
63731;BME280;49747;51.334;6.830;2023-02-23T10:46:17;100950.84;;;11.34;95.74
63731;BME280;49747;51.334;6.830;2023-02-23T10:48:46;100965.41;;;11.29;95.94
63731;BME280;49747;51.334;6.830;2023-02-23T10:51:19;100963.16;;;11.35;95.71
63731;BME280;49747;51.334;6.830;2023-02-23T10:53:49;100960.41;;;11.37;95.47
63731;BME280;49747;51.334;6.830;2023-02-23T10:56:20;100960.59;;;11.47;95.40
63731;BME280;49747;51.334;6.830;2023-02-23T10:58:52;100964.34;;;11.31;94.46
63731;BME280;49747;51.334;6.830;2023-02-23T11:01:38;100953.56;;;11.46;94.13
63731;BME280;49747;51.334;6.830;2023-02-23T11:04:21;100964.78;;;11.38;93.80
63731;BME280;49747;51.334;6.830;2023-02-23T11:06:50;100961.72;;;11.55;92.97
63731;BME280;49747;51.334;6.830;2023-02-23T11:12:28;100966.34;;;11.41;92.82
63731;BME280;49747;51.334;6.830;2023-02-23T11:15:26;100968.75;;;11.56;93.05
63731;BME280;49747;51.334;6.830;2023-02-23T11:18:23;100961.81;;;11.67;93.88
63731;BME280;49747;51.334;6.830;2023-02-23T11:20:51;100966.06;;;11.69;92.06
63731;BME280;49747;51.334;6.830;2023-02-23T11:26:00;100960.22;;;11.64;92.00
63731;BME280;49747;51.334;6.830;2023-02-23T11:28:31;100964.81;;;11.62;91.85
63731;BME280;49747;51.334;6.830;2023-02-23T11:31:20;100956.31;;;11.57;92.00
63731;BME280;49747;51.334;6.830;2023-02-23T11:33:49;100965.16;;;11.45;91.66
63731;BME280;49747;51.334;6.830;2023-02-23T11:39:06;100964.00;;;11.36;92.47
63731;BME280;49747;51.334;6.830;2023-02-23T11:41:35;100956.50;;;11.30;92.62
63731;BME280;49747;51.334;6.830;2023-02-23T11:44:03;100950.41;;;11.28;92.16
63731;BME280;49747;51.334;6.830;2023-02-23T11:46:36;100961.84;;;11.17;92.81
63731;BME280;49747;51.334;6.830;2023-02-23T11:49:08;100959.69;;;11.22;93.46
63731;BME280;49747;51.334;6.830;2023-02-23T11:51:40;100965.34;;;11.18;94.21
63731;BME280;49747;51.334;6.830;2023-02-23T11:54:27;100960.75;;;11.20;95.04
63731;BME280;49747;51.334;6.830;2023-02-23T11:56:55;100963.53;;;11.18;94.40
63731;BME280;49747;51.334;6.830;2023-02-23T11:59:28;100960.56;;;11.10;93.75
63731;BME280;49747;51.334;6.830;2023-02-23T12:02:04;100959.38;;;11.14;93.86
63731;BME280;49747;51.334;6.830;2023-02-23T12:04:36;100959.91;;;11.19;93.25
63731;BME280;49747;51.334;6.830;2023-02-23T12:07:23;100957.91;;;11.10;93.65
63731;BME280;49747;51.334;6.830;2023-02-23T12:10:28;100951.94;;;11.19;92.63
63731;BME280;49747;51.334;6.830;2023-02-23T12:15:39;100947.38;;;11.21;92.67
63731;BME280;49747;51.334;6.830;2023-02-23T12:18:17;100944.06;;;11.05;92.66
63731;BME280;49747;51.334;6.830;2023-02-23T12:20:49;100956.19;;;11.09;92.49
63731;BME280;49747;51.334;6.830;2023-02-23T12:23:24;100940.47;;;11.06;90.98
63731;BME280;49747;51.334;6.830;2023-02-23T12:25:58;100932.72;;;11.03;90.97
63731;BME280;49747;51.334;6.830;2023-02-23T12:28:36;100950.44;;;11.15;91.56
63731;BME280;49747;51.334;6.830;2023-02-23T12:31:37;100949.06;;;11.22;91.39
63731;BME280;49747;51.334;6.830;2023-02-23T12:34:16;100957.66;;;11.26;91.36
63731;BME280;49747;51.334;6.830;2023-02-23T12:36:53;100956.28;;;11.33;92.32
63731;BME280;49747;51.334;6.830;2023-02-23T12:39:35;100949.78;;;11.37;92.02
63731;BME280;49747;51.334;6.830;2023-02-23T12:42:44;100955.59;;;11.42;92.13
63731;BME280;49747;51.334;6.830;2023-02-23T12:45:38;100947.72;;;11.41;91.03
63731;BME280;49747;51.334;6.830;2023-02-23T12:50:51;100953.03;;;11.41;90.02
63731;BME280;49747;51.334;6.830;2023-02-23T12:53:27;100953.66;;;11.44;91.31
63731;BME280;49747;51.334;6.830;2023-02-23T13:01:35;100950.50;;;11.39;90.02
63731;BME280;49747;51.334;6.830;2023-02-23T13:07:05;100958.69;;;11.36;89.52
63731;BME280;49747;51.334;6.830;2023-02-23T13:12:47;100957.75;;;11.37;88.37
63731;BME280;49747;51.334;6.830;2023-02-23T13:15:26;100957.31;;;11.43;88.95
63731;BME280;49747;51.334;6.830;2023-02-23T13:18:05;100957.75;;;11.37;89.54
63731;BME280;49747;51.334;6.830;2023-02-23T13:20:38;100961.78;;;11.43;89.06
63731;BME280;49747;51.334;6.830;2023-02-23T13:28:44;100954.31;;;11.48;87.70
63731;BME280;49747;51.334;6.830;2023-02-23T13:31:19;100952.91;;;11.55;87.80
63731;BME280;49747;51.334;6.830;2023-02-23T13:33:48;100949.41;;;11.54;88.16
63731;BME280;49747;51.334;6.830;2023-02-23T13:36:15;100956.19;;;11.58;88.84
63731;BME280;49747;51.334;6.830;2023-02-23T13:38:50;100957.16;;;11.57;88.91
63731;BME280;49747;51.334;6.830;2023-02-23T13:41:29;100960.00;;;11.67;88.77
63731;BME280;49747;51.334;6.830;2023-02-23T13:44:26;100950.88;;;11.58;88.97
63731;BME280;49747;51.334;6.830;2023-02-23T13:47:07;100938.84;;;11.53;85.57
63731;BME280;49747;51.334;6.830;2023-02-23T13:50:06;100946.94;;;11.51;86.31
63731;BME280;49747;51.334;6.830;2023-02-23T13:52:43;100957.94;;;11.47;86.77
63731;BME280;49747;51.334;6.830;2023-02-23T13:58:16;100956.88;;;11.49;85.97
63731;BME280;49747;51.334;6.830;2023-02-23T14:00:52;100948.34;;;11.44;86.20
63731;BME280;49747;51.334;6.830;2023-02-23T14:03:22;100971.16;;;11.35;85.98
63731;BME280;49747;51.334;6.830;2023-02-23T14:05:56;100958.31;;;11.29;84.21
63731;BME280;49747;51.334;6.830;2023-02-23T14:08:36;100950.81;;;12.54;100.00
63731;BME280;49747;51.334;6.830;2023-02-23T14:11:04;100943.22;;;12.95;100.00
63731;BME280;49747;51.334;6.830;2023-02-23T14:13:34;100946.16;;;13.25;90.51
63731;BME280;49747;51.334;6.830;2023-02-23T14:19:11;100960.00;;;12.50;80.78
63731;BME280;49747;51.334;6.830;2023-02-23T14:21:44;100962.25;;;12.32;81.86
63731;BME280;49747;51.334;6.830;2023-02-23T14:27:17;100960.59;;;12.07;81.05
63731;BME280;49747;51.334;6.830;2023-02-23T14:29:42;100958.97;;;11.94;82.06
63731;BME280;49747;51.334;6.830;2023-02-23T14:37:36;100976.44;;;11.48;83.78
63731;BME280;49747;51.334;6.830;2023-02-23T14:40:21;100971.09;;;11.48;84.22
63731;BME280;49747;51.334;6.830;2023-02-23T14:42:50;100947.66;;;11.29;84.74
63731;BME280;49747;51.334;6.830;2023-02-23T14:45:23;100972.53;;;11.41;84.71
63731;BME280;49747;51.334;6.830;2023-02-23T14:47:56;100977.31;;;11.36;86.25
63731;BME280;49747;51.334;6.830;2023-02-23T14:50:30;100976.69;;;11.32;85.54